createdAt,value
2018-08-27T00:01:54.154Z,15.94
2018-08-27T00:04:57.375Z,15.94
2018-08-27T00:08:00.540Z,15.93
2018-08-27T00:11:03.836Z,15.89
2018-08-27T00:14:07.188Z,15.91
2018-08-27T00:17:10.339Z,15.92
2018-08-27T00:20:13.680Z,15.91
2018-08-27T00:23:16.922Z,15.89
2018-08-27T00:26:21.200Z,15.88
2018-08-27T00:29:24.456Z,15.82
2018-08-27T00:32:28.755Z,15.77
2018-08-27T00:35:35.545Z,15.69
2018-08-27T00:38:38.877Z,15.67
2018-08-27T00:41:42.141Z,15.65
2018-08-27T00:44:45.447Z,15.65
2018-08-27T00:47:48.792Z,15.69
2018-08-27T00:50:53.037Z,15.68
2018-08-27T00:53:56.408Z,15.69
2018-08-27T00:56:59.656Z,15.76
2018-08-27T01:00:03.100Z,15.79
2018-08-27T01:03:06.831Z,15.80
2018-08-27T01:06:10.042Z,15.76
2018-08-27T01:09:13.269Z,15.77
2018-08-27T01:12:16.584Z,15.78
2018-08-27T01:15:19.883Z,15.82
2018-08-27T01:18:23.956Z,15.89
2018-08-27T01:21:27.261Z,15.92
2018-08-27T01:24:31.515Z,15.90
2018-08-27T01:27:34.783Z,15.96
2018-08-27T01:30:38.083Z,15.95
2018-08-27T01:33:41.743Z,15.96
2018-08-27T01:36:46.270Z,16.02
2018-08-27T01:39:49.654Z,16.07
2018-08-27T01:42:53.257Z,16.07
2018-08-27T01:45:56.524Z,16.03
2018-08-27T01:48:59.834Z,16.03
2018-08-27T01:52:05.383Z,15.96
2018-08-27T01:55:08.661Z,15.96
2018-08-27T01:58:11.798Z,15.96
2018-08-27T02:01:15.290Z,15.99
2018-08-27T02:04:18.550Z,15.98
2018-08-27T02:07:23.950Z,15.98
2018-08-27T02:10:29.313Z,15.98
2018-08-27T02:13:32.579Z,15.97
2018-08-27T02:16:35.835Z,15.92
2018-08-27T02:19:39.183Z,15.94
2018-08-27T02:22:42.507Z,15.89
2018-08-27T02:25:45.762Z,15.92
2018-08-27T02:28:49.165Z,15.89
2018-08-27T02:31:52.565Z,15.88
2018-08-27T02:34:55.897Z,15.87
2018-08-27T02:37:59.190Z,15.88
2018-08-27T02:41:02.757Z,15.89
2018-08-27T02:44:06.045Z,15.93
2018-08-27T02:47:09.318Z,15.94
2018-08-27T02:50:12.638Z,15.94
2018-08-27T02:53:15.807Z,15.97
2018-08-27T02:56:19.140Z,15.94
2018-08-27T02:59:23.273Z,15.95
2018-08-27T03:02:26.616Z,15.97
2018-08-27T03:05:29.834Z,15.98
2018-08-27T03:08:33.007Z,15.95
2018-08-27T03:11:36.307Z,15.94
2018-08-27T03:14:39.527Z,15.92
2018-08-27T03:17:42.803Z,15.92
2018-08-27T03:20:46.001Z,15.93
2018-08-27T03:23:49.370Z,15.96
2018-08-27T03:26:53.643Z,15.93
2018-08-27T03:29:56.925Z,15.91
2018-08-27T03:33:00.254Z,15.94
2018-08-27T03:36:03.558Z,15.93
2018-08-27T03:39:10.136Z,15.97
2018-08-27T03:42:13.388Z,15.95
2018-08-27T03:45:16.687Z,15.95
2018-08-27T03:48:19.994Z,16.00
2018-08-27T03:51:23.314Z,16.01
2018-08-27T03:54:26.702Z,16.02
2018-08-27T03:57:30.018Z,16.05
2018-08-27T04:00:33.267Z,16.05
2018-08-27T04:03:36.599Z,16.06
2018-08-27T04:06:39.735Z,16.07
2018-08-27T04:09:43.091Z,16.08
2018-08-27T04:12:46.378Z,16.05
2018-08-27T04:15:49.584Z,16.06
2018-08-27T04:18:53.919Z,16.04
2018-08-27T04:21:57.173Z,16.04
2018-08-27T04:25:00.412Z,16.05
2018-08-27T04:28:03.667Z,16.05
2018-08-27T04:31:07.497Z,16.08
2018-08-27T04:34:10.742Z,16.07
2018-08-27T04:37:14.324Z,16.02
2018-08-27T04:40:17.565Z,16.04
2018-08-27T04:43:21.481Z,16.03
2018-08-27T04:46:24.830Z,16.04
2018-08-27T04:49:28.152Z,16.08
2018-08-27T04:52:31.423Z,16.11
2018-08-27T04:55:34.734Z,16.13
2018-08-27T04:58:43.254Z,16.10
2018-08-27T05:01:46.575Z,16.10
2018-08-27T05:04:50.788Z,16.08
2018-08-27T05:07:54.868Z,16.11
2018-08-27T05:10:58.169Z,16.11
2018-08-27T05:14:01.519Z,16.13
2018-08-27T05:17:07.987Z,16.20
2018-08-27T05:20:11.444Z,16.24
2018-08-27T05:23:14.784Z,16.26
2018-08-27T05:26:19.094Z,16.32
2018-08-27T05:29:22.932Z,16.36
2018-08-27T05:32:26.365Z,16.41
2018-08-27T05:35:29.652Z,16.43
2018-08-27T05:38:33.268Z,16.47
2018-08-27T05:41:36.488Z,16.51
2018-08-27T05:44:40.791Z,16.56
2018-08-27T05:47:44.149Z,16.57
2018-08-27T05:50:47.553Z,16.64
2018-08-27T05:53:50.857Z,16.70
2018-08-27T05:56:54.084Z,16.73
2018-08-27T05:59:57.341Z,16.78
2018-08-27T06:03:00.722Z,16.82
2018-08-27T06:06:04.030Z,16.84
2018-08-27T06:09:08.568Z,16.83
2018-08-27T06:12:11.767Z,16.87
2018-08-27T06:15:15.164Z,16.89
2018-08-27T06:18:18.479Z,16.94
2018-08-27T06:21:22.215Z,16.99
2018-08-27T06:24:25.506Z,17.01
2018-08-27T06:27:28.652Z,17.04
2018-08-27T06:30:33.034Z,17.05
2018-08-27T06:33:36.339Z,17.09
2018-08-27T06:36:41.720Z,17.10
2018-08-27T06:39:47.146Z,17.10
2018-08-27T06:42:50.437Z,17.11
2018-08-27T06:45:54.533Z,17.05
2018-08-27T06:48:57.805Z,17.04
2018-08-27T06:52:01.132Z,17.11
2018-08-27T06:55:04.924Z,17.12
2018-08-27T06:58:08.184Z,17.10
2018-08-27T07:01:11.536Z,16.98
2018-08-27T07:04:15.774Z,16.96
2018-08-27T07:07:19.160Z,16.83
2018-08-27T07:10:22.756Z,16.90
2018-08-27T07:13:25.988Z,16.97
2018-08-27T07:16:29.331Z,16.99
2018-08-27T07:19:32.629Z,17.03
2018-08-27T07:22:36.048Z,17.12
2018-08-27T07:25:39.253Z,17.14
2018-08-27T07:28:43.773Z,17.13
2018-08-27T07:31:46.961Z,17.13
2018-08-27T07:34:50.274Z,17.16
2018-08-27T07:37:53.563Z,17.10
2018-08-27T07:40:57.898Z,17.11
2018-08-27T07:44:03.232Z,17.16
2018-08-27T07:47:06.565Z,17.14
2018-08-27T07:50:09.883Z,17.16
2018-08-27T07:53:13.743Z,17.22
2018-08-27T07:56:17.011Z,17.34
2018-08-27T07:59:22.178Z,17.50
2018-08-27T08:02:25.570Z,17.56
2018-08-27T08:05:29.265Z,17.61
2018-08-27T08:08:32.541Z,17.76
2018-08-27T08:11:36.098Z,17.91
2018-08-27T08:14:39.398Z,18.01
2018-08-27T08:17:42.735Z,18.11
2018-08-27T08:20:47.837Z,18.17
2018-08-27T08:23:51.109Z,18.17
2018-08-27T08:26:54.388Z,18.18
2018-08-27T08:29:57.713Z,18.28
2018-08-27T08:33:02.692Z,18.09
2018-08-27T08:36:06.004Z,18.18
2018-08-27T08:39:09.349Z,18.33
2018-08-27T08:42:12.592Z,18.33
2018-08-27T08:45:16.858Z,18.47
2018-08-27T08:48:21.179Z,18.50
2018-08-27T08:51:24.537Z,18.58
2018-08-27T08:54:27.741Z,18.68
2018-08-27T08:57:30.967Z,18.81
2018-08-27T09:00:34.252Z,18.88
2018-08-27T09:03:37.594Z,18.93
2018-08-27T09:06:40.927Z,18.93
2018-08-27T09:09:45.188Z,19.09
2018-08-27T09:12:48.624Z,19.09
2018-08-27T09:15:52.195Z,19.10
2018-08-27T09:18:55.481Z,19.06
2018-08-27T09:21:58.666Z,19.10
2018-08-27T09:25:01.982Z,19.09
2018-08-27T09:28:05.281Z,19.09
2018-08-27T09:31:08.610Z,18.94
2018-08-27T09:34:11.982Z,18.96
2018-08-27T09:37:15.266Z,18.95
2018-08-27T09:40:18.512Z,18.97
2018-08-27T09:43:21.812Z,18.97
2018-08-27T09:46:25.058Z,18.90
2018-08-27T09:49:28.347Z,18.95
2018-08-27T09:52:31.620Z,18.92
2018-08-27T09:55:34.878Z,19.07
2018-08-27T09:58:38.092Z,19.03
2018-08-27T10:01:45.460Z,18.97
2018-08-27T10:04:48.816Z,18.97
2018-08-27T10:07:52.172Z,18.94
2018-08-27T10:10:55.384Z,19.06
2018-08-27T10:13:58.580Z,19.06
2018-08-27T10:17:01.900Z,19.14
2018-08-27T10:20:06.139Z,19.23
2018-08-27T10:23:09.404Z,19.19
2018-08-27T10:26:12.771Z,19.20
2018-08-27T10:29:16.908Z,19.24
2018-08-27T10:32:20.115Z,19.19
2018-08-27T10:35:29.071Z,19.29
2018-08-27T10:38:32.376Z,19.36
2018-08-27T10:41:35.919Z,19.41
2018-08-27T10:44:39.371Z,19.48
2018-08-27T10:47:42.669Z,19.52
2018-08-27T10:50:47.425Z,19.63
2018-08-27T10:53:50.674Z,19.80
2018-08-27T10:56:53.967Z,19.86
2018-08-27T10:59:57.622Z,19.88
2018-08-27T11:03:00.861Z,19.93
2018-08-27T11:06:05.076Z,19.94
2018-08-27T11:09:09.335Z,20.13
2018-08-27T11:12:12.594Z,20.10
2018-08-27T11:15:16.462Z,20.16
2018-08-27T11:18:19.711Z,20.32
2018-08-27T11:21:23.038Z,20.19
2018-08-27T11:24:26.190Z,20.11
2018-08-27T11:27:29.419Z,19.97
2018-08-27T11:30:32.714Z,19.98
2018-08-27T11:33:35.989Z,19.97
2018-08-27T11:36:39.214Z,19.81
2018-08-27T11:39:42.564Z,19.86
2018-08-27T11:42:47.017Z,19.96
2018-08-27T11:45:51.136Z,20.09
2018-08-27T11:48:54.420Z,20.16
2018-08-27T11:51:57.767Z,20.11
2018-08-27T11:55:01.561Z,20.09
2018-08-27T11:58:04.734Z,20.13
2018-08-27T12:01:08.552Z,20.12
2018-08-27T12:04:11.782Z,20.10
2018-08-27T12:07:15.690Z,20.25
2018-08-27T12:10:18.963Z,20.37
2018-08-27T12:13:22.153Z,20.44
2018-08-27T12:16:25.485Z,20.53
2018-08-27T12:19:28.778Z,20.53
2018-08-27T12:22:32.097Z,20.69
2018-08-27T12:25:35.279Z,20.84
2018-08-27T12:28:38.624Z,20.93
2018-08-27T12:31:42.077Z,21.06
2018-08-27T12:34:45.393Z,21.34
2018-08-27T12:37:48.842Z,21.45
2018-08-27T12:40:52.091Z,21.49
2018-08-27T12:43:55.366Z,21.55
2018-08-27T12:46:58.819Z,21.63
2018-08-27T12:50:02.175Z,21.81
2018-08-27T12:53:05.692Z,21.92
2018-08-27T12:56:10.071Z,22.08
2018-08-27T12:59:13.398Z,22.08
2018-08-27T13:02:17.353Z,22.14
2018-08-27T13:05:20.806Z,22.18
2018-08-27T13:08:24.121Z,22.11
2018-08-27T13:11:27.537Z,22.16
2018-08-27T13:14:31.008Z,22.11
2018-08-27T13:17:34.329Z,21.94
2018-08-27T13:20:37.605Z,21.75
2018-08-27T13:23:40.879Z,21.71
2018-08-27T13:26:44.264Z,21.79
2018-08-27T13:29:47.608Z,21.77
2018-08-27T13:32:50.909Z,21.73
2018-08-27T13:35:54.062Z,21.74
2018-08-27T13:38:57.294Z,21.62
2018-08-27T13:42:00.482Z,21.58
2018-08-27T13:45:03.896Z,21.62
2018-08-27T13:48:07.309Z,21.68
2018-08-27T13:51:10.587Z,21.78
2018-08-27T13:54:13.758Z,21.80
2018-08-27T13:57:17.080Z,21.79
2018-08-27T14:00:21.357Z,21.81
2018-08-27T14:03:24.673Z,21.85
2018-08-27T14:06:28.009Z,21.86
2018-08-27T14:09:31.231Z,22.07
2018-08-27T14:12:34.499Z,22.07
2018-08-27T14:15:37.846Z,22.11
2018-08-27T14:18:41.059Z,22.15
2018-08-27T14:21:44.495Z,22.14
2018-08-27T14:24:48.121Z,22.15
2018-08-27T14:27:51.267Z,22.20
2018-08-27T14:30:54.464Z,22.02
2018-08-27T14:33:57.977Z,22.07
2018-08-27T14:37:01.235Z,21.95
2018-08-27T14:40:04.669Z,22.01
2018-08-27T14:43:08.947Z,21.99
2018-08-27T14:46:12.612Z,21.99
2018-08-27T14:49:16.359Z,21.89
2018-08-27T14:52:19.535Z,21.79
2018-08-27T14:55:22.989Z,21.86
2018-08-27T14:58:26.327Z,21.88
2018-08-27T15:01:29.601Z,21.99
2018-08-27T15:04:32.981Z,21.89
2018-08-27T15:07:37.275Z,21.85
2018-08-27T15:10:40.504Z,21.98
2018-08-27T15:13:43.808Z,21.92
2018-08-27T15:16:48.599Z,22.00
2018-08-27T15:19:51.947Z,21.94
2018-08-27T15:22:55.230Z,22.02
2018-08-27T15:25:58.495Z,22.08
2018-08-27T15:29:02.036Z,22.05
2018-08-27T15:32:05.253Z,21.95
2018-08-27T15:35:08.583Z,21.95
2018-08-27T15:38:11.909Z,21.93
2018-08-27T15:41:16.567Z,21.89
2018-08-27T15:44:19.824Z,21.89
2018-08-27T15:47:23.161Z,21.82
2018-08-27T15:50:26.510Z,22.00
2018-08-27T15:53:29.880Z,21.92
2018-08-27T15:56:33.158Z,21.88
2018-08-27T15:59:36.402Z,21.94
2018-08-27T16:02:39.768Z,21.95
2018-08-27T16:05:43.083Z,22.01
2018-08-27T16:08:46.453Z,21.97
2018-08-27T16:11:49.746Z,22.00
2018-08-27T16:14:53.062Z,22.07
2018-08-27T16:17:56.362Z,22.20
2018-08-27T16:20:59.609Z,22.28
2018-08-27T16:24:02.794Z,22.33
2018-08-27T16:27:06.103Z,22.39
2018-08-27T16:30:10.972Z,22.34
2018-08-27T16:33:14.258Z,22.34
2018-08-27T16:36:18.478Z,22.46
2018-08-27T16:39:21.762Z,22.60
2018-08-27T16:42:25.997Z,22.76
2018-08-27T16:45:29.493Z,22.95
2018-08-27T16:48:32.651Z,22.83
2018-08-27T16:51:36.706Z,22.80
2018-08-27T16:54:40.067Z,22.70
2018-08-27T16:57:43.271Z,22.56
2018-08-27T17:00:47.419Z,22.61
2018-08-27T17:03:51.074Z,22.52
2018-08-27T17:06:54.371Z,22.48
2018-08-27T17:09:57.730Z,22.45
2018-08-27T17:13:00.871Z,22.35
2018-08-27T17:16:04.195Z,22.32
2018-08-27T17:19:07.490Z,22.32
2018-08-27T17:22:10.774Z,22.37
2018-08-27T17:25:13.971Z,22.36
2018-08-27T17:28:17.199Z,22.25
2018-08-27T17:31:20.505Z,22.25
2018-08-27T17:34:25.404Z,22.25
2018-08-27T17:37:28.697Z,22.22
2018-08-27T17:40:35.616Z,22.20
2018-08-27T17:43:39.007Z,22.17
2018-08-27T17:46:42.243Z,22.17
2018-08-27T17:49:46.425Z,22.18
2018-08-27T17:52:49.725Z,22.17
2018-08-27T17:55:52.999Z,22.18
2018-08-27T17:58:56.910Z,22.15
2018-08-27T18:02:00.467Z,22.14
2018-08-27T18:05:05.370Z,22.06
2018-08-27T18:08:08.488Z,22.03
2018-08-27T18:11:11.905Z,22.00
2018-08-27T18:14:15.108Z,22.01
2018-08-27T18:17:18.460Z,22.00
2018-08-27T18:20:21.725Z,21.99
2018-08-27T18:23:25.035Z,21.97
2018-08-27T18:26:28.375Z,21.88
2018-08-27T18:29:31.753Z,21.90
2018-08-27T18:32:35.023Z,21.83
2018-08-27T18:35:38.292Z,21.80
2018-08-27T18:38:41.692Z,21.71
2018-08-27T18:41:45.007Z,21.66
2018-08-27T18:44:49.308Z,21.59
2018-08-27T18:47:52.963Z,21.54
2018-08-27T18:50:56.208Z,21.51
2018-08-27T18:53:59.523Z,21.42
2018-08-27T18:57:02.839Z,21.37
2018-08-27T19:00:06.182Z,21.31
2018-08-27T19:03:09.399Z,21.29
2018-08-27T19:06:12.730Z,21.28
2018-08-27T19:09:15.999Z,21.24
2018-08-27T19:12:19.367Z,21.34
2018-08-27T19:15:22.946Z,21.34
2018-08-27T19:18:26.193Z,21.35
2018-08-27T19:21:29.462Z,21.43
2018-08-27T19:24:32.735Z,21.50
2018-08-27T19:27:35.894Z,21.52
2018-08-27T19:30:39.211Z,21.53
2018-08-27T19:33:42.503Z,21.50
2018-08-27T19:36:45.804Z,21.50
2018-08-27T19:39:50.196Z,21.50
2018-08-27T19:42:53.836Z,21.51
2018-08-27T19:45:58.147Z,21.49
2018-08-27T19:49:01.316Z,21.48
2018-08-27T19:52:04.640Z,21.47
2018-08-27T19:55:07.935Z,21.44
2018-08-27T19:58:11.263Z,21.44
2018-08-27T20:01:14.594Z,21.43
2018-08-27T20:04:17.961Z,21.43
2018-08-27T20:07:21.194Z,21.33
2018-08-27T20:10:25.715Z,21.27
2018-08-27T20:13:29.082Z,21.21
2018-08-27T20:16:32.444Z,21.16
2018-08-27T20:19:35.704Z,21.18
2018-08-27T20:22:39.051Z,21.14
2018-08-27T20:25:42.513Z,21.09
2018-08-27T20:28:45.877Z,21.08
2018-08-27T20:31:49.165Z,21.07
2018-08-27T20:34:52.980Z,21.03
2018-08-27T20:37:56.253Z,21.04
2018-08-27T20:40:59.416Z,21.00
2018-08-27T20:44:02.763Z,20.93
2018-08-27T20:47:06.165Z,20.93
2018-08-27T20:50:09.427Z,20.89
2018-08-27T20:53:12.639Z,20.86
2018-08-27T20:56:16.391Z,20.61
2018-08-27T20:59:19.652Z,20.54
2018-08-27T21:02:22.906Z,20.43
2018-08-27T21:05:26.240Z,20.21
2018-08-27T21:08:29.507Z,20.22
2018-08-27T21:11:32.916Z,20.09
2018-08-27T21:14:41.544Z,19.98
2018-08-27T21:17:46.928Z,19.83
2018-08-27T21:20:50.295Z,19.78
2018-08-27T21:23:53.908Z,19.85
2018-08-27T21:26:57.175Z,19.78
2018-08-27T21:30:00.319Z,19.60
2018-08-27T21:33:03.532Z,19.60
2018-08-27T21:36:06.935Z,19.60
2018-08-27T21:39:10.224Z,19.64
2018-08-27T21:42:14.517Z,19.69
2018-08-27T21:45:17.797Z,19.69
2018-08-27T21:48:21.075Z,19.66
2018-08-27T21:51:25.325Z,19.65
2018-08-27T21:54:28.690Z,19.64
2018-08-27T21:57:34.013Z,19.66
2018-08-27T22:00:43.070Z,19.64
2018-08-27T22:03:51.815Z,19.67
2018-08-27T22:06:56.495Z,19.69
2018-08-27T22:10:00.347Z,19.72
2018-08-27T22:13:04.766Z,19.65
2018-08-27T22:16:08.061Z,19.73
2018-08-27T22:19:11.257Z,19.75
2018-08-27T22:22:14.668Z,19.66
2018-08-27T22:25:17.884Z,19.47
2018-08-27T22:28:21.166Z,19.46
2018-08-27T22:31:25.439Z,19.53
2018-08-27T22:34:28.729Z,19.56
2018-08-27T22:37:32.303Z,19.57
2018-08-27T22:40:35.835Z,19.55
2018-08-27T22:43:41.230Z,19.51
2018-08-27T22:46:44.677Z,19.43
2018-08-27T22:49:47.972Z,19.39
2018-08-27T22:52:51.544Z,19.42
2018-08-27T22:55:55.715Z,19.34
2018-08-27T22:58:59.895Z,19.27
2018-08-27T23:02:03.523Z,19.20
2018-08-27T23:05:08.431Z,19.16
2018-08-27T23:08:12.291Z,19.11
2018-08-27T23:11:16.118Z,19.11
2018-08-27T23:14:19.353Z,19.15
2018-08-27T23:17:23.794Z,19.13
2018-08-27T23:20:27.415Z,19.10
2018-08-27T23:23:30.727Z,19.02
2018-08-27T23:26:34.982Z,18.98
2018-08-27T23:29:38.445Z,18.95
2018-08-27T23:32:41.775Z,18.88
2018-08-27T23:35:45.063Z,18.79
2018-08-27T23:38:48.355Z,18.86
2018-08-27T23:41:51.539Z,18.79
2018-08-27T23:44:55.843Z,18.73
2018-08-27T23:47:59.090Z,18.74
2018-08-27T23:51:02.419Z,18.69
2018-08-27T23:54:05.768Z,18.58
2018-08-27T23:57:09.091Z,18.45
